Ana Sayfa
METAR-TAF:

METAR-TAF

Havaalanları :

Udon Thani, Tayland

Enlem: 17-23N, Boylam: 102-48E, yükseklik: 177 m

Güncel hava durumu gözlemi

Rapor saat 05:00 UTC de 31 dakika önce yapıldı.
Rüzgar değişken yönden 4 kt
Sıcaklık 26°C
Nem 45%
Basınç 1017 hPa
Görüş mesafesi 10 km veya daha fazla
1500 m altında bulut yok ve kümülonimbus yok

METAR: VTUD 120500Z VRB04KT CAVOK 26/13 Q1017 NOSIG

Saat: 12:31 (05:31 UTC)

Tahmin

Rapor saat 23:00 UTC de 6 saat ve 31 dakika önce yapıldı.
Ayın 12'si saat 00 UTC'den ayın 12'si saat 24 UTC'ye kadar geçerli Tahmin
Rüzgar doğu/kuzeydoğudan 6 kt
Görüş mesafesi: 5000 m
Pus
Dönüşüyor
ayın 12'si saat 02 UTC'den ayın 12'si saat 04 UTC'ye kadar
Görüş mesafesi: 9000 m

TAF: VTUD 112300Z 1200/1224 06006KT 5000 BR NSC BECMG 1202/1204 9000 NSW

4.000'den fazla havaalanı için hava durumu gözlemleri ve tahminleri (METAR ve TAF raporları).

Kullanılabilir istasyonlar harita üzerinde sarı ve kırmızı noktalarla gösterilir.

İstasyonun adını görmek için fareyi noktanın üzerinde gezdirin.

Sonrasında hava gözlem ve tahminlerini görmek için tıklayın.

Haritayı değiştirmek için: yaklaştırmak için siyah artı işaretli yeşil düğmeye ve uzaklaştırmak için de eksi işaretli düğmeye hızla tıklayın; bitişik haritalar için yeşil okları kullanın.


METAR-TAF: